createdAt,value
2023-05-08T00:01:51.975Z,20.90
2023-05-08T00:04:00.426Z,21.75
2023-05-08T00:06:12.265Z,23.15
2023-05-08T00:08:20.564Z,23.75
2023-05-08T00:10:28.649Z,22.67
2023-05-08T00:12:36.881Z,21.60
2023-05-08T00:14:44.710Z,20.52
2023-05-08T00:16:52.587Z,22.15
2023-05-08T00:19:00.781Z,20.77
2023-05-08T00:21:11.451Z,20.95
2023-05-08T00:23:19.374Z,20.98
2023-05-08T00:25:27.864Z,19.98
2023-05-08T00:27:36.407Z,17.15
2023-05-08T00:29:44.676Z,18.30
2023-05-08T00:31:52.811Z,18.98
2023-05-08T00:34:01.019Z,19.33
2023-05-08T00:36:12.716Z,17.73
2023-05-08T00:38:20.976Z,21.58
2023-05-08T00:40:29.227Z,21.17
2023-05-08T00:42:37.118Z,21.75
2023-05-08T00:44:46.047Z,20.90
2023-05-08T00:46:54.373Z,20.52
2023-05-08T00:49:02.486Z,19.10
2023-05-08T00:51:14.253Z,20.55
2023-05-08T00:53:24.730Z,20.02
2023-05-08T00:55:32.932Z,19.80
2023-05-08T00:57:41.835Z,20.23
2023-05-08T00:59:51.849Z,21.70
2023-05-08T01:02:00.236Z,18.52
2023-05-08T01:04:09.101Z,18.30
2023-05-08T01:06:19.911Z,17.15
2023-05-08T01:08:28.481Z,18.55
2023-05-08T01:11:01.209Z,19.50
2023-05-08T01:13:17.310Z,18.98
2023-05-08T01:15:32.497Z,19.35
2023-05-08T01:17:54.697Z,18.13
2023-05-08T01:20:13.535Z,18.48
2023-05-08T01:22:41.291Z,19.17
2023-05-08T01:25:20.886Z,21.17
2023-05-08T01:27:50.714Z,19.30
2023-05-08T01:30:22.199Z,19.88
2023-05-08T01:32:39.356Z,19.98
2023-05-08T01:34:55.047Z,20.77
2023-05-08T01:37:06.261Z,20.00
2023-05-08T01:39:22.074Z,20.40
2023-05-08T01:41:32.533Z,18.67
2023-05-08T01:43:47.961Z,20.17
2023-05-08T01:45:58.810Z,21.40
2023-05-08T01:48:13.716Z,19.50
2023-05-08T01:50:28.937Z,20.92
2023-05-08T01:52:43.267Z,19.10
2023-05-08T01:55:00.539Z,22.48
2023-05-08T01:57:12.438Z,21.13
2023-05-08T01:59:25.233Z,20.50
2023-05-08T02:01:37.724Z,20.98
2023-05-08T02:03:49.853Z,21.30
2023-05-08T02:05:59.633Z,20.45
2023-05-08T02:08:10.257Z,20.85
2023-05-08T02:10:19.477Z,18.92
2023-05-08T02:12:31.462Z,20.45
2023-05-08T02:14:43.100Z,19.13
2023-05-08T02:16:53.657Z,20.75
2023-05-08T02:19:06.612Z,19.40
2023-05-08T02:21:17.558Z,18.48
2023-05-08T02:23:28.592Z,20.08
2023-05-08T02:25:38.245Z,19.60
2023-05-08T02:27:48.454Z,19.90
2023-05-08T02:29:57.706Z,20.25
2023-05-08T02:32:07.805Z,22.50
2023-05-08T02:34:19.934Z,21.30
2023-05-08T02:36:30.019Z,20.70
2023-05-08T02:38:44.543Z,21.67
2023-05-08T02:40:58.505Z,21.33
2023-05-08T02:43:07.715Z,21.35
2023-05-08T02:45:16.906Z,21.38
2023-05-08T02:47:33.340Z,22.70
2023-05-08T02:49:52.092Z,21.77
2023-05-08T02:52:07.774Z,21.40
2023-05-08T02:54:24.773Z,20.80
2023-05-08T02:56:39.233Z,20.55
2023-05-08T02:58:55.931Z,20.48
2023-05-08T03:01:08.824Z,19.50
2023-05-08T03:03:30.409Z,20.00
2023-05-08T03:05:42.652Z,20.80
2023-05-08T03:07:54.148Z,19.95
2023-05-08T03:10:09.557Z,20.90
2023-05-08T03:12:20.003Z,18.90
2023-05-08T03:14:31.918Z,19.20
2023-05-08T03:16:42.875Z,19.60
2023-05-08T03:19:05.113Z,18.52
2023-05-08T03:21:21.129Z,18.77
2023-05-08T03:23:32.332Z,20.15
2023-05-08T03:25:43.116Z,19.20
2023-05-08T03:27:55.313Z,20.10
2023-05-08T03:30:05.806Z,19.10
2023-05-08T03:32:17.187Z,19.33
2023-05-08T03:34:27.508Z,19.35
2023-05-08T03:36:38.804Z,20.77
2023-05-08T03:38:47.488Z,17.95
2023-05-08T03:40:56.240Z,18.90
2023-05-08T03:43:04.785Z,17.45
2023-05-08T03:45:14.382Z,17.75
2023-05-08T03:47:24.538Z,18.27
2023-05-08T03:49:33.868Z,17.30
2023-05-08T03:51:46.429Z,17.40
2023-05-08T03:53:55.717Z,16.90
2023-05-08T03:56:05.495Z,19.33
2023-05-08T03:58:22.873Z,18.75
2023-05-08T04:00:40.605Z,16.98
2023-05-08T04:02:59.292Z,16.92
2023-05-08T04:05:19.031Z,20.38
2023-05-08T04:07:34.924Z,18.75
2023-05-08T04:09:48.938Z,18.75
2023-05-08T04:12:05.442Z,18.17
2023-05-08T04:14:19.680Z,18.30
2023-05-08T04:16:31.210Z,18.80
2023-05-08T04:18:41.326Z,18.58
2023-05-08T04:20:51.601Z,17.35
2023-05-08T04:23:02.746Z,19.00
2023-05-08T04:25:14.239Z,17.90
2023-05-08T04:27:24.025Z,18.20
2023-05-08T04:29:36.237Z,18.88
2023-05-08T04:31:45.586Z,18.98
2023-05-08T04:33:54.021Z,18.42
2023-05-08T04:36:04.532Z,17.20
2023-05-08T04:38:16.331Z,19.27
2023-05-08T04:40:25.433Z,19.10
2023-05-08T04:42:36.703Z,17.73
2023-05-08T04:44:45.614Z,18.67
2023-05-08T04:46:53.906Z,18.83
2023-05-08T04:49:02.217Z,19.15
2023-05-08T04:51:12.061Z,18.92
2023-05-08T04:53:22.945Z,20.10
2023-05-08T04:55:31.020Z,19.48
2023-05-08T04:57:39.962Z,19.20
2023-05-08T04:59:49.145Z,19.00
2023-05-08T05:01:57.119Z,16.90
2023-05-08T05:04:05.545Z,16.90
2023-05-08T05:06:13.550Z,16.80
2023-05-08T05:08:24.432Z,18.10
2023-05-08T05:10:32.505Z,17.38
2023-05-08T05:12:41.317Z,16.40
2023-05-08T05:14:49.320Z,18.02
2023-05-08T05:16:57.289Z,18.50
2023-05-08T05:19:05.320Z,18.05
2023-05-08T05:21:14.351Z,18.27
2023-05-08T05:23:25.148Z,19.20
2023-05-08T05:25:33.250Z,18.63
2023-05-08T05:27:41.393Z,20.20
2023-05-08T05:29:50.299Z,19.63
2023-05-08T05:31:58.669Z,19.38
2023-05-08T05:34:09.757Z,19.20
2023-05-08T05:36:18.124Z,19.23
2023-05-08T05:38:28.799Z,20.23
2023-05-08T05:40:39.852Z,18.52
2023-05-08T05:42:52.752Z,20.08
2023-05-08T05:45:02.133Z,17.65
2023-05-08T05:47:12.580Z,17.13
2023-05-08T05:49:22.194Z,17.58
2023-05-08T05:51:30.544Z,17.20
2023-05-08T05:53:42.037Z,18.50
2023-05-08T05:55:49.913Z,17.70
2023-05-08T05:57:58.474Z,16.98
2023-05-08T06:00:08.425Z,16.77
2023-05-08T06:02:22.169Z,17.05
2023-05-08T06:04:30.452Z,15.43
2023-05-08T06:06:38.593Z,15.95
2023-05-08T06:08:49.810Z,16.10
2023-05-08T06:10:57.744Z,16.52
2023-05-08T06:13:06.699Z,15.52
2023-05-08T06:15:16.826Z,18.33
2023-05-08T06:17:27.605Z,17.60
2023-05-08T06:19:36.872Z,16.77
2023-05-08T06:21:44.913Z,17.23
2023-05-08T06:23:55.658Z,17.95
2023-05-08T06:26:03.662Z,16.50
2023-05-08T06:28:11.768Z,17.38
2023-05-08T06:30:19.878Z,16.80
2023-05-08T06:32:27.897Z,17.30
2023-05-08T06:34:36.444Z,16.75
2023-05-08T06:36:44.483Z,15.68
2023-05-08T06:38:52.432Z,16.33
2023-05-08T06:41:03.283Z,15.80
2023-05-08T06:43:11.122Z,14.75
2023-05-08T06:45:19.298Z,15.40
2023-05-08T06:47:27.193Z,13.40
2023-05-08T06:49:35.300Z,13.88
2023-05-08T06:51:43.233Z,13.30
2023-05-08T06:53:51.470Z,13.73
2023-05-08T06:56:04.020Z,12.20
2023-05-08T06:58:12.697Z,12.68
2023-05-08T07:00:20.900Z,11.65
2023-05-08T07:02:29.377Z,12.55
2023-05-08T07:04:37.316Z,12.40
2023-05-08T07:06:45.524Z,11.82
2023-05-08T07:08:53.564Z,12.23
2023-05-08T07:11:04.185Z,11.35
2023-05-08T07:13:13.575Z,12.02
2023-05-08T07:15:26.452Z,11.55
2023-05-08T07:17:37.156Z,11.63
2023-05-08T07:19:45.261Z,11.93
2023-05-08T07:21:53.262Z,11.77
2023-05-08T07:24:01.730Z,12.32
2023-05-08T07:26:12.913Z,12.23
2023-05-08T07:28:21.039Z,12.18
2023-05-08T07:30:29.020Z,11.95
2023-05-08T07:32:38.745Z,10.43
2023-05-08T07:34:49.007Z,10.85
2023-05-08T07:36:57.326Z,12.75
2023-05-08T07:39:05.564Z,11.95
2023-05-08T07:41:16.411Z,11.90
2023-05-08T07:43:24.904Z,11.02
2023-05-08T07:45:32.897Z,11.38
2023-05-08T07:47:42.667Z,11.02
2023-05-08T07:49:50.551Z,12.00
2023-05-08T07:51:58.579Z,10.95
2023-05-08T07:54:06.491Z,11.60
2023-05-08T07:56:18.634Z,11.15
2023-05-08T07:58:27.079Z,11.52
2023-05-08T08:00:35.164Z,11.95
2023-05-08T08:02:43.860Z,10.95
2023-05-08T08:04:52.542Z,10.68
2023-05-08T08:07:00.815Z,11.90
2023-05-08T08:09:08.997Z,11.70
2023-05-08T08:11:19.934Z,12.30
2023-05-08T08:13:27.980Z,12.35
2023-05-08T08:15:36.237Z,12.85
2023-05-08T08:17:44.349Z,12.75
2023-05-08T08:19:52.760Z,13.63
2023-05-08T08:22:00.693Z,14.02
2023-05-08T08:24:09.006Z,14.02
2023-05-08T08:26:19.489Z,14.00
2023-05-08T08:28:27.455Z,15.13
2023-05-08T08:30:35.392Z,15.63
2023-05-08T08:32:43.537Z,15.52
2023-05-08T08:34:51.530Z,16.00
2023-05-08T08:36:59.505Z,16.75
2023-05-08T08:39:10.420Z,16.05
2023-05-08T08:41:22.470Z,17.70
2023-05-08T08:43:30.432Z,17.13
2023-05-08T08:45:39.160Z,17.50
2023-05-08T08:47:48.423Z,17.85
2023-05-08T08:49:57.895Z,17.70
2023-05-08T08:52:10.114Z,17.48
2023-05-08T08:54:27.065Z,17.60
2023-05-08T08:56:43.105Z,17.02
2023-05-08T08:58:59.505Z,16.40
2023-05-08T09:01:10.954Z,16.63
2023-05-08T09:03:19.088Z,16.48
2023-05-08T09:05:27.014Z,17.90
2023-05-08T09:07:35.654Z,17.65
2023-05-08T09:09:45.655Z,16.58
2023-05-08T09:11:56.911Z,17.85
2023-05-08T09:14:06.656Z,16.38
2023-05-08T09:16:15.142Z,16.30
2023-05-08T09:18:23.063Z,14.80
2023-05-08T09:20:32.907Z,14.60
2023-05-08T09:22:41.774Z,15.63
2023-05-08T09:25:00.797Z,13.98
2023-05-08T09:27:23.906Z,14.43
2023-05-08T09:29:31.848Z,17.27
2023-05-08T09:31:40.819Z,17.52
2023-05-08T09:33:48.916Z,17.42
2023-05-08T09:35:57.771Z,16.35
2023-05-08T09:38:05.811Z,15.85
2023-05-08T09:40:18.494Z,16.25
2023-05-08T09:42:40.955Z,15.15
2023-05-08T09:44:50.498Z,16.02
2023-05-08T09:47:14.361Z,13.90
2023-05-08T09:49:23.028Z,14.32
2023-05-08T09:51:32.278Z,14.82
2023-05-08T09:53:43.561Z,15.00
2023-05-08T09:55:51.578Z,15.23
2023-05-08T09:58:03.593Z,13.00
2023-05-08T10:00:17.153Z,12.65
2023-05-08T10:02:25.286Z,12.02
2023-05-08T10:04:36.452Z,10.50
2023-05-08T10:06:44.606Z,12.38
2023-05-08T10:08:52.568Z,13.55
2023-05-08T10:11:17.355Z,14.40
2023-05-08T10:13:28.119Z,15.15
2023-05-08T10:15:40.775Z,13.65
2023-05-08T10:17:57.160Z,15.90
2023-05-08T10:20:10.831Z,15.07
2023-05-08T10:22:20.412Z,14.93
2023-05-08T10:24:31.258Z,14.77
2023-05-08T10:26:50.740Z,14.88
2023-05-08T10:29:20.831Z,14.65
2023-05-08T10:31:31.961Z,14.70
2023-05-08T10:33:44.397Z,14.50
2023-05-08T10:35:52.532Z,14.50
2023-05-08T10:38:01.616Z,14.25
2023-05-08T10:40:11.712Z,14.90
2023-05-08T10:42:20.584Z,12.50
2023-05-08T10:44:32.589Z,12.32
2023-05-08T10:46:49.657Z,13.27
2023-05-08T10:49:07.982Z,11.73
2023-05-08T10:51:25.073Z,9.70
2023-05-08T10:53:41.849Z,12.60
2023-05-08T10:55:53.686Z,11.70
2023-05-08T10:58:12.719Z,13.27
2023-05-08T11:00:25.514Z,13.52
2023-05-08T11:02:37.218Z,13.35
2023-05-08T11:04:45.582Z,12.85
2023-05-08T11:06:54.580Z,12.57
2023-05-08T11:09:02.546Z,13.18
2023-05-08T11:11:17.406Z,12.75
2023-05-08T11:13:31.730Z,11.98
2023-05-08T11:15:43.562Z,12.95
2023-05-08T11:17:57.491Z,12.82
2023-05-08T11:20:07.554Z,11.80
2023-05-08T11:22:38.593Z,12.27
2023-05-08T11:24:56.816Z,10.43
2023-05-08T11:27:05.312Z,12.18
2023-05-08T11:29:20.373Z,10.85
2023-05-08T11:31:54.449Z,11.52
2023-05-08T11:34:02.531Z,11.38
2023-05-08T11:36:17.662Z,11.60
2023-05-08T11:38:36.266Z,10.93
2023-05-08T11:40:53.341Z,10.57
2023-05-08T11:43:02.705Z,12.63
2023-05-08T11:45:12.621Z,11.25
2023-05-08T11:47:26.087Z,12.15
2023-05-08T11:49:34.025Z,12.23
2023-05-08T11:51:45.164Z,12.82
2023-05-08T11:53:54.307Z,11.95
2023-05-08T11:56:03.149Z,13.55
2023-05-08T11:58:15.758Z,13.93
2023-05-08T12:00:25.469Z,13.52
2023-05-08T12:02:46.118Z,12.90
2023-05-08T12:04:54.754Z,12.07
2023-05-08T12:07:03.142Z,12.38
2023-05-08T12:09:16.676Z,13.68
2023-05-08T12:11:28.401Z,12.85
2023-05-08T12:13:36.468Z,14.82
2023-05-08T12:15:44.714Z,13.55
2023-05-08T12:18:04.800Z,14.10
2023-05-08T12:20:15.564Z,13.38
2023-05-08T12:22:25.034Z,13.52
2023-05-08T12:24:34.352Z,14.48
2023-05-08T12:26:42.297Z,13.33
2023-05-08T12:28:51.288Z,13.70
2023-05-08T12:30:59.590Z,14.60
2023-05-08T12:33:10.654Z,13.02
2023-05-08T12:35:19.448Z,13.77
2023-05-08T12:37:29.844Z,13.48
2023-05-08T12:39:40.504Z,13.88
2023-05-08T12:41:51.961Z,14.40
2023-05-08T12:43:59.988Z,14.57
2023-05-08T12:46:08.269Z,13.88
2023-05-08T12:48:18.938Z,13.93
2023-05-08T12:50:27.307Z,14.52
2023-05-08T12:52:35.208Z,14.85
2023-05-08T12:54:44.606Z,14.93
2023-05-08T12:56:53.245Z,14.13
2023-05-08T12:59:02.606Z,13.75
2023-05-08T13:01:13.768Z,15.15
2023-05-08T13:03:29.944Z,15.77
2023-05-08T13:05:39.919Z,16.15
2023-05-08T13:07:47.891Z,15.60
2023-05-08T13:10:00.382Z,15.07
2023-05-08T13:12:09.830Z,17.08
2023-05-08T13:14:18.274Z,16.35
2023-05-08T13:16:26.460Z,17.08
2023-05-08T13:18:37.640Z,16.35
2023-05-08T13:20:46.538Z,16.77
2023-05-08T13:22:54.542Z,16.38
2023-05-08T13:25:02.460Z,16.92
2023-05-08T13:27:10.434Z,16.00
2023-05-08T13:29:19.016Z,17.27
2023-05-08T13:31:27.497Z,16.83
2023-05-08T13:33:38.626Z,17.65
2023-05-08T13:35:46.937Z,17.50
2023-05-08T13:37:55.073Z,15.90
2023-05-08T13:40:03.651Z,17.90
2023-05-08T13:42:11.876Z,17.60
2023-05-08T13:44:19.865Z,18.65
2023-05-08T13:46:28.221Z,17.02
2023-05-08T13:48:39.037Z,15.88
2023-05-08T13:50:47.017Z,17.30
2023-05-08T13:52:55.382Z,16.50
2023-05-08T13:55:03.456Z,16.83
2023-05-08T13:57:11.732Z,15.45
2023-05-08T13:59:19.785Z,17.23
2023-05-08T14:01:28.086Z,17.15
2023-05-08T14:03:38.856Z,16.65
2023-05-08T14:05:46.826Z,16.77
2023-05-08T14:07:54.877Z,17.25
2023-05-08T14:10:03.365Z,16.23
2023-05-08T14:12:11.603Z,16.75
2023-05-08T14:14:19.485Z,15.77
2023-05-08T14:16:27.546Z,15.30
2023-05-08T14:18:38.175Z,16.25
2023-05-08T14:20:51.644Z,16.63
2023-05-08T14:23:04.712Z,15.48
2023-05-08T14:25:13.798Z,15.60
2023-05-08T14:27:22.069Z,14.27
2023-05-08T14:29:30.169Z,14.35
2023-05-08T14:31:38.276Z,14.63
2023-05-08T14:33:48.988Z,14.05
2023-05-08T14:35:56.988Z,15.52
2023-05-08T14:38:05.074Z,13.10
2023-05-08T14:40:13.307Z,13.93
2023-05-08T14:42:23.620Z,13.52
2023-05-08T14:44:31.915Z,13.57
2023-05-08T14:46:40.118Z,12.13
2023-05-08T14:48:50.745Z,12.93
2023-05-08T14:50:59.921Z,12.88
2023-05-08T14:53:08.218Z,12.35
2023-05-08T14:55:21.065Z,12.45
2023-05-08T14:57:29.238Z,12.38
2023-05-08T14:59:38.616Z,12.85
2023-05-08T15:01:49.763Z,13.50
2023-05-08T15:04:00.687Z,13.85
2023-05-08T15:06:10.067Z,13.55
2023-05-08T15:08:18.300Z,14.10
2023-05-08T15:10:26.576Z,14.13
2023-05-08T15:12:34.462Z,13.18
2023-05-08T15:14:42.453Z,13.25
2023-05-08T15:16:50.793Z,13.35
2023-05-08T15:19:01.749Z,13.10
2023-05-08T15:21:09.619Z,13.85
2023-05-08T15:23:20.539Z,13.32
2023-05-08T15:25:28.720Z,13.20
2023-05-08T15:27:36.645Z,14.02
2023-05-08T15:29:44.879Z,14.13
2023-05-08T15:31:52.867Z,13.10
2023-05-08T15:34:03.483Z,13.20
2023-05-08T15:36:11.714Z,14.35
2023-05-08T15:38:20.091Z,13.90
2023-05-08T15:40:27.992Z,13.63
2023-05-08T15:42:36.453Z,13.60
2023-05-08T15:44:54.719Z,12.55
2023-05-08T15:47:03.236Z,13.60
2023-05-08T15:49:13.775Z,11.85
2023-05-08T15:51:21.859Z,13.00
2023-05-08T15:53:29.943Z,12.60
2023-05-08T15:55:37.821Z,12.98
2023-05-08T15:57:45.748Z,12.35
2023-05-08T15:59:53.701Z,11.73
2023-05-08T16:02:01.871Z,12.38
2023-05-08T16:04:10.001Z,11.88
2023-05-08T16:06:20.828Z,13.00
2023-05-08T16:08:29.617Z,12.88
2023-05-08T16:10:37.659Z,12.82
2023-05-08T16:12:45.677Z,13.02
2023-05-08T16:14:53.671Z,12.30
2023-05-08T16:17:01.796Z,11.70
2023-05-08T16:19:09.748Z,12.18
2023-05-08T16:21:20.513Z,11.85
2023-05-08T16:23:28.646Z,13.23
2023-05-08T16:25:37.116Z,13.15
2023-05-08T16:27:45.188Z,13.00
2023-05-08T16:29:53.108Z,12.13
2023-05-08T16:32:01.079Z,13.43
2023-05-08T16:34:09.038Z,13.50
2023-05-08T16:36:17.004Z,12.85
2023-05-08T16:38:27.604Z,12.90
2023-05-08T16:40:36.069Z,12.68
2023-05-08T16:42:44.167Z,12.55
2023-05-08T16:44:52.249Z,12.85
2023-05-08T16:47:00.175Z,13.15
2023-05-08T16:49:08.116Z,12.77
2023-05-08T16:51:16.387Z,12.18
2023-05-08T16:53:27.305Z,12.68
2023-05-08T16:55:37.849Z,12.25
2023-05-08T16:57:45.754Z,12.18
2023-05-08T16:59:53.817Z,12.40
2023-05-08T17:02:01.915Z,13.40
2023-05-08T17:04:10.310Z,12.23
2023-05-08T17:06:18.376Z,13.77
2023-05-08T17:08:26.345Z,12.77
2023-05-08T17:10:34.757Z,12.50
2023-05-08T17:12:45.634Z,13.20
2023-05-08T17:14:53.882Z,12.65
2023-05-08T17:17:01.894Z,12.70
2023-05-08T17:19:09.829Z,13.35
2023-05-08T17:21:17.929Z,12.63
2023-05-08T17:23:25.858Z,12.23
2023-05-08T17:25:33.750Z,12.95
2023-05-08T17:27:41.744Z,11.80
2023-05-08T17:29:52.465Z,10.45
2023-05-08T17:32:00.445Z,12.52
2023-05-08T17:34:08.686Z,12.45
2023-05-08T17:36:16.837Z,12.52
2023-05-08T17:38:24.915Z,12.52
2023-05-08T17:40:33.272Z,12.57
2023-05-08T17:42:41.373Z,11.80
2023-05-08T17:44:52.547Z,13.73
2023-05-08T17:47:00.728Z,14.73
2023-05-08T17:49:08.730Z,14.65
2023-05-08T17:51:17.381Z,14.40
2023-05-08T17:53:25.564Z,13.85
2023-05-08T17:55:34.880Z,14.20
2023-05-08T17:57:42.894Z,14.18
2023-05-08T17:59:53.773Z,13.75
2023-05-08T18:02:01.718Z,14.00
2023-05-08T18:04:09.896Z,15.00
2023-05-08T18:06:18.569Z,13.98
2023-05-08T18:08:26.720Z,14.85
2023-05-08T18:10:35.187Z,14.90
2023-05-08T18:12:43.455Z,14.30
2023-05-08T18:14:53.995Z,15.18
2023-05-08T18:17:02.080Z,14.75
2023-05-08T18:19:10.030Z,14.77
2023-05-08T18:21:18.116Z,15.18
2023-05-08T18:23:26.055Z,15.80
2023-05-08T18:25:34.262Z,14.13
2023-05-08T18:27:42.990Z,14.35
2023-05-08T18:29:53.743Z,15.88
2023-05-08T18:32:01.688Z,14.10
2023-05-08T18:34:09.758Z,13.82
2023-05-08T18:36:17.992Z,15.23
2023-05-08T18:38:26.036Z,14.65
2023-05-08T18:40:34.160Z,15.98
2023-05-08T18:42:42.156Z,16.00
2023-05-08T18:44:50.172Z,16.25
2023-05-08T18:47:01.597Z,14.63
2023-05-08T18:49:09.571Z,16.05
2023-05-08T18:51:17.727Z,16.30
2023-05-08T18:53:25.789Z,14.68
2023-05-08T18:55:33.951Z,14.88
2023-05-08T18:57:41.872Z,16.40
2023-05-08T18:59:51.808Z,16.70
2023-05-08T19:02:03.138Z,16.10
2023-05-08T19:04:11.250Z,15.25
2023-05-08T19:06:19.641Z,16.48
2023-05-08T19:08:27.903Z,17.38
2023-05-08T19:10:37.527Z,16.85
2023-05-08T19:12:45.803Z,15.90
2023-05-08T19:14:55.469Z,15.00
2023-05-08T19:17:06.084Z,17.02
2023-05-08T19:19:14.197Z,16.95
2023-05-08T19:21:22.786Z,16.00
2023-05-08T19:23:30.696Z,15.88
2023-05-08T19:25:38.919Z,16.00
2023-05-08T19:27:47.344Z,16.90
2023-05-08T19:29:55.455Z,17.65
2023-05-08T19:32:06.275Z,17.42
2023-05-08T19:34:16.406Z,16.15
2023-05-08T19:36:24.424Z,18.05
2023-05-08T19:38:32.487Z,18.70
2023-05-08T19:40:52.435Z,19.38
2023-05-08T19:43:05.028Z,18.63
2023-05-08T19:45:16.393Z,17.77
2023-05-08T19:47:28.436Z,18.60
2023-05-08T19:49:43.868Z,17.67
2023-05-08T19:51:51.938Z,18.05
2023-05-08T19:53:59.875Z,17.05
2023-05-08T19:56:09.139Z,20.08
2023-05-08T19:58:17.669Z,18.30
2023-05-08T20:00:28.815Z,19.42
2023-05-08T20:02:39.540Z,19.25
2023-05-08T20:05:14.460Z,18.95
2023-05-08T20:07:18.780Z,18.50
2023-05-08T20:09:29.352Z,20.90
2023-05-08T20:11:37.310Z,19.52
2023-05-08T20:13:45.476Z,19.42
2023-05-08T20:15:54.333Z,21.65
2023-05-08T20:18:05.291Z,18.83
2023-05-08T20:20:15.019Z,20.15
2023-05-08T20:22:25.411Z,19.98
2023-05-08T20:24:33.398Z,19.73
2023-05-08T20:26:41.557Z,19.45
2023-05-08T20:28:49.808Z,19.55
2023-05-08T20:31:00.415Z,20.20
2023-05-08T20:33:11.011Z,20.70
2023-05-08T20:35:19.269Z,19.20
2023-05-08T20:37:27.270Z,20.08
2023-05-08T20:39:35.333Z,21.60
2023-05-08T20:41:43.368Z,21.63
2023-05-08T20:43:51.583Z,21.25
2023-05-08T20:45:59.705Z,21.10
2023-05-08T20:48:11.334Z,20.77
2023-05-08T20:50:19.315Z,20.00
2023-05-08T20:52:30.255Z,21.60
2023-05-08T20:54:38.247Z,21.83
2023-05-08T20:56:46.385Z,21.25
2023-05-08T20:58:54.345Z,19.42
2023-05-08T21:01:02.500Z,21.75
2023-05-08T21:03:13.190Z,20.90
2023-05-08T21:05:21.483Z,21.73
2023-05-08T21:07:29.505Z,22.80
2023-05-08T21:09:37.486Z,21.08
2023-05-08T21:11:45.326Z,22.27
2023-05-08T21:13:53.255Z,22.00
2023-05-08T21:16:01.193Z,21.80
2023-05-08T21:18:09.115Z,22.90
2023-05-08T21:20:21.499Z,22.33
2023-05-08T21:22:31.053Z,23.33
2023-05-08T21:24:54.722Z,22.20
2023-05-08T21:27:02.755Z,22.17
2023-05-08T21:29:11.023Z,23.40
2023-05-08T21:31:18.953Z,23.00
2023-05-08T21:33:28.807Z,23.02
2023-05-08T21:35:39.314Z,23.30
2023-05-08T21:37:47.489Z,22.92
2023-05-08T21:39:55.409Z,21.70
2023-05-08T21:42:03.343Z,23.17
2023-05-08T21:44:12.932Z,22.35
2023-05-08T21:46:21.076Z,23.33
2023-05-08T21:48:29.135Z,22.95
2023-05-08T21:50:39.759Z,23.75
2023-05-08T21:52:51.036Z,23.58
2023-05-08T21:55:08.709Z,23.60
2023-05-08T21:57:16.884Z,22.35
2023-05-08T21:59:24.822Z,21.38
2023-05-08T22:01:32.986Z,21.92
2023-05-08T22:03:41.203Z,22.80
2023-05-08T22:05:51.899Z,23.30
2023-05-08T22:08:01.436Z,21.15
2023-05-08T22:10:11.973Z,21.65
2023-05-08T22:12:20.353Z,19.70
2023-05-08T22:14:28.413Z,21.88
2023-05-08T22:16:36.608Z,21.05
2023-05-08T22:18:44.594Z,21.75
2023-05-08T22:20:56.511Z,20.73
2023-05-08T22:23:04.481Z,22.65
2023-05-08T22:25:12.934Z,22.45
2023-05-08T22:27:21.523Z,22.92
2023-05-08T22:29:29.547Z,21.33
2023-05-08T22:31:38.024Z,22.77
2023-05-08T22:33:46.036Z,21.95
2023-05-08T22:35:56.758Z,23.40
2023-05-08T22:38:04.676Z,22.90
2023-05-08T22:40:13.530Z,23.60
2023-05-08T22:42:21.782Z,24.90
2023-05-08T22:44:29.874Z,23.35
2023-05-08T22:46:38.403Z,24.00
2023-05-08T22:48:47.508Z,22.23
2023-05-08T22:50:58.252Z,23.10
2023-05-08T22:53:08.432Z,25.15
2023-05-08T22:55:17.170Z,23.05
2023-05-08T22:57:25.341Z,23.40
2023-05-08T22:59:33.715Z,23.45
2023-05-08T23:01:41.692Z,24.48
2023-05-08T23:03:49.673Z,25.75
2023-05-08T23:06:00.225Z,24.75
2023-05-08T23:08:09.084Z,22.90
2023-05-08T23:10:17.230Z,22.70
2023-05-08T23:12:25.261Z,22.52
2023-05-08T23:14:34.915Z,23.30
2023-05-08T23:16:43.150Z,23.63
2023-05-08T23:18:51.404Z,24.27
2023-05-08T23:21:10.425Z,23.75
2023-05-08T23:23:18.396Z,24.55
2023-05-08T23:25:26.584Z,23.58
2023-05-08T23:27:34.653Z,23.83
2023-05-08T23:29:42.799Z,22.10
2023-05-08T23:31:51.086Z,24.45
2023-05-08T23:33:59.416Z,23.50
2023-05-08T23:36:11.558Z,23.80
2023-05-08T23:38:19.790Z,22.83
2023-05-08T23:40:27.717Z,24.75
2023-05-08T23:42:37.361Z,23.85
2023-05-08T23:44:45.281Z,23.88
2023-05-08T23:46:53.636Z,24.10
2023-05-08T23:49:01.639Z,22.80
2023-05-08T23:51:12.203Z,24.80
2023-05-08T23:53:20.297Z,24.77
2023-05-08T23:55:30.501Z,24.15
2023-05-08T23:57:39.550Z,24.45
2023-05-08T23:59:47.612Z,23.63
